createdAt,value
2018-05-25T00:02:17.203Z,16.36
2018-05-25T00:04:45.821Z,16.32
2018-05-25T00:07:14.387Z,16.29
2018-05-25T00:09:42.993Z,16.35
2018-05-25T00:12:11.570Z,16.41
2018-05-25T00:14:40.171Z,16.43
2018-05-25T00:17:08.742Z,16.38
2018-05-25T00:19:37.306Z,16.47
2018-05-25T00:22:05.919Z,16.46
2018-05-25T00:24:34.501Z,16.43
2018-05-25T00:27:03.111Z,16.47
2018-05-25T00:29:31.680Z,16.41
2018-05-25T00:32:00.243Z,16.43
2018-05-25T00:34:28.811Z,16.46
2018-05-25T00:36:57.431Z,16.42
2018-05-25T00:39:26.074Z,16.41
2018-05-25T00:41:54.643Z,16.32
2018-05-25T00:44:23.237Z,16.31
2018-05-25T00:46:51.801Z,16.27
2018-05-25T00:49:20.379Z,16.23
2018-05-25T00:51:49.129Z,16.23
2018-05-25T00:54:17.692Z,16.25
2018-05-25T00:56:46.281Z,16.20
2018-05-25T00:59:14.923Z,16.19
2018-05-25T01:01:43.511Z,16.23
2018-05-25T01:04:12.087Z,16.23
2018-05-25T01:06:40.648Z,16.22
2018-05-25T01:09:09.224Z,16.20
2018-05-25T01:11:37.789Z,16.18
2018-05-25T01:14:06.043Z,16.13
2018-05-25T01:16:34.610Z,16.01
2018-05-25T01:19:03.167Z,15.96
2018-05-25T01:21:31.763Z,15.88
2018-05-25T01:24:00.314Z,15.84
2018-05-25T01:26:28.884Z,15.86
2018-05-25T01:28:57.453Z,15.87
2018-05-25T01:31:26.017Z,15.86
2018-05-25T01:33:54.587Z,15.88
2018-05-25T01:36:23.184Z,15.87
2018-05-25T01:38:51.757Z,15.84
2018-05-25T01:41:20.357Z,15.81
2018-05-25T01:43:48.923Z,15.76
2018-05-25T01:46:17.483Z,15.77
2018-05-25T01:48:46.064Z,15.78
2018-05-25T01:51:14.659Z,15.78
2018-05-25T01:53:43.239Z,15.80
2018-05-25T01:56:11.836Z,15.78
2018-05-25T01:58:40.408Z,15.77
2018-05-25T02:01:08.981Z,15.75
2018-05-25T02:03:37.547Z,15.72
2018-05-25T02:06:05.467Z,15.72
2018-05-25T02:08:34.040Z,15.72
2018-05-25T02:11:02.600Z,15.72
2018-05-25T02:13:31.182Z,15.68
2018-05-25T02:15:59.756Z,15.67
2018-05-25T02:18:28.339Z,15.59
2018-05-25T02:20:56.990Z,15.56
2018-05-25T02:23:25.569Z,15.57
2018-05-25T02:25:54.148Z,15.56
2018-05-25T02:28:22.947Z,15.55
2018-05-25T02:30:51.568Z,15.56
2018-05-25T02:33:20.134Z,15.54
2018-05-25T02:35:48.687Z,15.53
2018-05-25T02:38:17.255Z,15.48
2018-05-25T02:40:45.828Z,15.38
2018-05-25T02:43:14.401Z,15.34
2018-05-25T02:45:42.973Z,15.31
2018-05-25T02:48:11.584Z,15.35
2018-05-25T02:50:40.195Z,15.33
2018-05-25T02:53:08.821Z,15.34
2018-05-25T02:55:37.392Z,15.31
2018-05-25T02:58:05.954Z,15.30
2018-05-25T03:00:34.739Z,15.30
2018-05-25T03:03:02.968Z,15.28
2018-05-25T03:05:31.567Z,15.24
2018-05-25T03:08:00.128Z,15.28
2018-05-25T03:10:28.719Z,15.26
2018-05-25T03:12:57.279Z,15.28
2018-05-25T03:15:26.040Z,15.30
2018-05-25T03:17:54.608Z,15.30
2018-05-25T03:20:23.207Z,15.32
2018-05-25T03:22:51.782Z,15.30
2018-05-25T03:25:20.370Z,15.27
2018-05-25T03:27:48.936Z,15.29
2018-05-25T03:30:17.533Z,15.28
2018-05-25T03:32:46.122Z,15.29
2018-05-25T03:35:14.777Z,15.40
2018-05-25T03:37:43.385Z,15.49
2018-05-25T03:40:11.943Z,15.53
2018-05-25T03:42:40.502Z,15.58
2018-05-25T03:45:09.075Z,15.60
2018-05-25T03:47:37.647Z,15.63
2018-05-25T03:50:06.216Z,15.70
2018-05-25T03:52:34.850Z,15.75
2018-05-25T03:55:03.429Z,15.79
2018-05-25T03:57:31.999Z,15.85
2018-05-25T04:00:11.708Z,15.90
2018-05-25T04:02:40.271Z,15.98
2018-05-25T04:05:08.902Z,16.05
2018-05-25T04:07:37.494Z,16.12
2018-05-25T04:10:07.718Z,16.19
2018-05-25T04:12:36.291Z,16.24
2018-05-25T04:15:04.850Z,16.34
2018-05-25T04:17:33.420Z,16.48
2018-05-25T04:20:02.695Z,16.61
2018-05-25T04:22:31.292Z,16.59
2018-05-25T04:24:59.861Z,16.67
2018-05-25T04:27:28.432Z,16.75
2018-05-25T04:29:57.003Z,16.76
2018-05-25T04:32:25.571Z,16.82
2018-05-25T04:34:54.130Z,16.90
2018-05-25T04:37:22.697Z,16.99
2018-05-25T04:39:51.260Z,17.05
2018-05-25T04:42:19.653Z,17.17
2018-05-25T04:44:48.222Z,17.36
2018-05-25T04:47:16.944Z,17.64
2018-05-25T04:49:45.517Z,18.33
2018-05-25T04:52:14.133Z,19.03
2018-05-25T04:54:42.703Z,19.73
2018-05-25T04:57:11.314Z,20.16
2018-05-25T04:59:39.990Z,20.75
2018-05-25T05:02:08.554Z,21.29
2018-05-25T05:04:37.115Z,21.78
2018-05-25T05:07:05.679Z,22.10
2018-05-25T05:09:34.248Z,22.31
2018-05-25T05:12:02.887Z,22.76
2018-05-25T05:14:31.492Z,23.19
2018-05-25T05:17:00.059Z,23.19
2018-05-25T05:19:28.668Z,23.20
2018-05-25T05:21:57.240Z,23.46
2018-05-25T05:24:25.805Z,23.64
2018-05-25T05:26:54.371Z,24.06
2018-05-25T05:29:22.922Z,24.01
2018-05-25T05:31:51.507Z,24.03
2018-05-25T05:34:20.110Z,24.10
2018-05-25T05:36:48.724Z,24.24
2018-05-25T05:39:17.313Z,24.14
2018-05-25T05:41:45.868Z,24.10
2018-05-25T05:44:14.427Z,23.69
2018-05-25T05:46:42.663Z,23.50
2018-05-25T05:49:11.254Z,23.28
2018-05-25T05:51:39.891Z,22.86
2018-05-25T05:54:08.712Z,22.60
2018-05-25T05:56:37.286Z,22.30
2018-05-25T05:59:05.929Z,22.20
2018-05-25T06:01:34.496Z,21.99
2018-05-25T06:04:03.131Z,21.79
2018-05-25T06:06:31.692Z,21.77
2018-05-25T06:09:00.335Z,21.67
2018-05-25T06:11:28.934Z,21.62
2018-05-25T06:13:57.516Z,21.48
2018-05-25T06:16:26.222Z,21.44
2018-05-25T06:18:54.796Z,21.55
2018-05-25T06:21:23.371Z,21.50
2018-05-25T06:23:51.955Z,21.47
2018-05-25T06:26:20.571Z,21.33
2018-05-25T06:28:49.235Z,21.36
2018-05-25T06:31:17.804Z,21.37
2018-05-25T06:33:46.372Z,21.43
2018-05-25T06:36:14.943Z,21.52
2018-05-25T06:38:43.516Z,21.54
2018-05-25T06:41:12.100Z,21.35
2018-05-25T06:43:40.659Z,21.40
2018-05-25T06:46:09.256Z,21.40
2018-05-25T06:48:37.821Z,21.35
2018-05-25T06:51:06.379Z,21.33
2018-05-25T06:53:34.983Z,21.31
2018-05-25T06:56:03.541Z,21.23
2018-05-25T06:58:32.258Z,21.30
2018-05-25T07:01:00.824Z,21.27
2018-05-25T07:03:29.424Z,21.26
2018-05-25T07:05:58.038Z,21.35
2018-05-25T07:08:26.599Z,21.36
2018-05-25T07:10:55.190Z,21.39
2018-05-25T07:13:23.795Z,21.38
2018-05-25T07:15:52.369Z,21.44
2018-05-25T07:18:20.956Z,21.34
2018-05-25T07:20:49.548Z,21.38
2018-05-25T07:23:18.160Z,21.41
2018-05-25T07:25:46.723Z,21.51
2018-05-25T07:28:15.290Z,21.62
2018-05-25T07:30:43.889Z,21.65
2018-05-25T07:33:12.443Z,21.69
2018-05-25T07:35:41.038Z,21.77
2018-05-25T07:38:09.612Z,21.79
2018-05-25T07:40:38.226Z,21.88
2018-05-25T07:43:06.791Z,21.91
2018-05-25T07:45:35.410Z,21.87
2018-05-25T07:48:03.976Z,21.83
2018-05-25T07:50:32.547Z,21.97
2018-05-25T07:53:01.100Z,22.05
2018-05-25T07:55:29.674Z,22.13
2018-05-25T07:57:58.228Z,22.25
2018-05-25T08:00:26.827Z,22.35
2018-05-25T08:02:55.392Z,22.43
2018-05-25T08:05:23.995Z,22.50
2018-05-25T08:07:52.567Z,22.59
2018-05-25T08:10:21.160Z,22.77
2018-05-25T08:12:49.740Z,22.88
2018-05-25T08:15:18.344Z,22.93
2018-05-25T08:17:46.944Z,22.96
2018-05-25T08:20:15.515Z,22.98
2018-05-25T08:22:44.089Z,23.09
2018-05-25T08:25:12.651Z,23.09
2018-05-25T08:27:41.247Z,23.22
2018-05-25T08:30:09.856Z,23.30
2018-05-25T08:32:38.464Z,23.25
2018-05-25T08:35:07.083Z,22.95
2018-05-25T08:37:35.676Z,22.98
2018-05-25T08:40:03.963Z,23.06
2018-05-25T08:42:32.531Z,22.95
2018-05-25T08:45:01.227Z,22.94
2018-05-25T08:47:30.032Z,22.76
2018-05-25T08:49:58.699Z,22.74
2018-05-25T08:52:27.302Z,22.88
2018-05-25T08:54:55.855Z,22.92
2018-05-25T08:57:24.399Z,23.04
2018-05-25T08:59:52.956Z,23.24
2018-05-25T09:02:22.473Z,23.05
2018-05-25T09:04:51.033Z,23.06
2018-05-25T09:07:20.524Z,23.23
2018-05-25T09:09:49.863Z,23.47
2018-05-25T09:12:18.158Z,23.57
2018-05-25T09:14:48.003Z,23.64
2018-05-25T09:17:16.764Z,23.58
2018-05-25T09:19:45.343Z,23.62
2018-05-25T09:22:14.202Z,23.55
2018-05-25T09:24:42.908Z,23.40
2018-05-25T09:27:11.924Z,23.53
2018-05-25T09:29:40.549Z,23.54
2018-05-25T09:32:10.080Z,23.50
2018-05-25T09:34:40.486Z,23.39
2018-05-25T09:37:09.136Z,23.60
2018-05-25T09:39:37.735Z,23.79
2018-05-25T09:42:06.325Z,23.99
2018-05-25T09:44:34.887Z,24.03
2018-05-25T09:47:03.115Z,24.05
2018-05-25T09:49:31.699Z,24.02
2018-05-25T09:52:00.258Z,23.64
2018-05-25T09:54:28.852Z,23.68
2018-05-25T09:57:00.604Z,23.73
2018-05-25T09:59:29.168Z,24.03
2018-05-25T10:01:57.726Z,24.28
2018-05-25T10:04:26.302Z,24.21
2018-05-25T10:06:54.897Z,24.29
2018-05-25T10:09:23.450Z,24.40
2018-05-25T10:11:52.011Z,24.38
2018-05-25T10:14:20.571Z,24.49
2018-05-25T10:16:49.129Z,24.28
2018-05-25T10:19:17.711Z,23.93
2018-05-25T10:21:46.291Z,23.89
2018-05-25T10:24:14.845Z,24.03
2018-05-25T10:26:43.407Z,23.78
2018-05-25T10:29:11.995Z,23.93
2018-05-25T10:31:40.557Z,24.19
2018-05-25T10:34:09.151Z,24.49
2018-05-25T10:36:37.723Z,24.63
2018-05-25T10:39:06.306Z,24.63
2018-05-25T10:41:34.863Z,24.71
2018-05-25T10:44:03.433Z,24.51
2018-05-25T10:46:32.007Z,24.54
2018-05-25T10:49:00.565Z,24.63
2018-05-25T10:51:29.150Z,24.49
2018-05-25T10:53:57.760Z,24.46
2018-05-25T10:56:26.407Z,24.39
2018-05-25T10:58:55.064Z,24.59
2018-05-25T11:01:23.637Z,24.79
2018-05-25T11:03:52.218Z,24.85
2018-05-25T11:06:20.771Z,24.68
2018-05-25T11:08:49.331Z,24.71
2018-05-25T11:11:17.887Z,24.60
2018-05-25T11:13:46.454Z,24.43
2018-05-25T11:16:15.033Z,24.61
2018-05-25T11:18:43.634Z,24.74
2018-05-25T11:21:12.197Z,24.75
2018-05-25T11:23:40.758Z,24.66
2018-05-25T11:26:09.341Z,24.59
2018-05-25T11:28:37.900Z,24.65
2018-05-25T11:31:06.476Z,24.78
2018-05-25T11:33:38.579Z,24.84
2018-05-25T11:36:07.181Z,24.97
2018-05-25T11:38:35.751Z,25.01
2018-05-25T11:41:03.963Z,25.18
2018-05-25T11:43:32.521Z,25.24
2018-05-25T11:46:01.127Z,25.00
2018-05-25T11:48:29.683Z,24.72
2018-05-25T11:50:58.246Z,24.52
2018-05-25T11:53:26.790Z,24.71
2018-05-25T11:55:55.339Z,24.86
2018-05-25T11:58:23.887Z,24.69
2018-05-25T12:00:52.448Z,24.51
2018-05-25T12:03:21.062Z,24.75
2018-05-25T12:05:49.611Z,24.76
2018-05-25T12:08:18.163Z,24.76
2018-05-25T12:10:46.727Z,24.40
2018-05-25T12:13:15.331Z,24.17
2018-05-25T12:15:43.901Z,22.79
2018-05-25T12:18:12.464Z,21.98
2018-05-25T12:20:41.032Z,22.07
2018-05-25T12:23:09.599Z,21.60
2018-05-25T12:25:38.210Z,21.15
2018-05-25T12:28:06.777Z,21.02
2018-05-25T12:30:35.339Z,20.94
2018-05-25T12:33:03.961Z,21.16
2018-05-25T12:35:32.536Z,21.51
2018-05-25T12:38:01.096Z,21.70
2018-05-25T12:40:29.732Z,21.68
2018-05-25T12:42:58.424Z,21.80
2018-05-25T12:45:26.995Z,21.91
2018-05-25T12:47:55.562Z,22.02
2018-05-25T12:50:24.143Z,22.19
2018-05-25T12:52:52.764Z,22.47
2018-05-25T12:55:21.327Z,22.79
2018-05-25T12:57:49.899Z,23.01
2018-05-25T13:00:18.300Z,23.18
2018-05-25T13:02:46.859Z,23.33
2018-05-25T13:05:15.426Z,23.39
2018-05-25T13:07:44.182Z,23.46
2018-05-25T13:10:12.751Z,23.23
2018-05-25T13:12:41.371Z,23.17
2018-05-25T13:15:09.936Z,23.21
2018-05-25T13:17:38.542Z,23.20
2018-05-25T13:20:06.824Z,23.24
2018-05-25T13:22:35.376Z,23.20
2018-05-25T13:25:03.584Z,23.32
2018-05-25T13:27:32.185Z,23.50
2018-05-25T13:30:00.543Z,23.55
2018-05-25T13:32:29.152Z,23.63
2018-05-25T13:34:57.792Z,23.74
2018-05-25T13:37:26.423Z,23.92
2018-05-25T13:39:55.004Z,24.31
2018-05-25T13:42:23.555Z,24.52
2018-05-25T13:44:52.114Z,24.24
2018-05-25T13:47:20.733Z,24.17
2018-05-25T13:49:49.312Z,24.43
2018-05-25T13:52:17.907Z,24.45
2018-05-25T13:54:46.462Z,24.19
2018-05-25T13:57:15.024Z,24.21
2018-05-25T13:59:43.628Z,23.91
2018-05-25T14:02:12.397Z,23.66
2018-05-25T14:04:40.999Z,23.54
2018-05-25T14:07:09.568Z,23.60
2018-05-25T14:09:38.183Z,23.43
2018-05-25T14:12:06.804Z,23.29
2018-05-25T14:14:35.415Z,22.99
2018-05-25T14:17:03.634Z,22.80
2018-05-25T14:19:32.248Z,22.87
2018-05-25T14:22:00.839Z,22.81
2018-05-25T14:24:29.417Z,22.69
2018-05-25T14:26:58.000Z,22.75
2018-05-25T14:29:26.659Z,22.83
2018-05-25T14:31:55.265Z,22.80
2018-05-25T14:34:24.656Z,22.57
2018-05-25T14:36:53.283Z,22.62
2018-05-25T14:39:21.862Z,22.40
2018-05-25T14:41:50.466Z,22.34
2018-05-25T14:44:19.065Z,22.24
2018-05-25T14:46:47.626Z,22.15
2018-05-25T14:49:16.223Z,22.26
2018-05-25T14:51:44.822Z,22.34
2018-05-25T14:54:13.448Z,22.60
2018-05-25T14:56:42.101Z,22.80
2018-05-25T14:59:10.659Z,22.69
2018-05-25T15:01:39.219Z,22.60
2018-05-25T15:04:07.785Z,22.40
2018-05-25T15:06:36.398Z,22.40
2018-05-25T15:09:04.458Z,22.50
2018-05-25T15:11:33.041Z,22.57
2018-05-25T15:14:01.599Z,22.49
2018-05-25T15:16:30.172Z,22.44
2018-05-25T15:18:58.741Z,22.45
2018-05-25T15:21:27.368Z,22.48
2018-05-25T15:23:55.935Z,22.55
2018-05-25T15:26:24.515Z,22.59
2018-05-25T15:28:53.077Z,22.63
2018-05-25T15:31:21.627Z,22.61
2018-05-25T15:33:50.227Z,22.78
2018-05-25T15:36:18.791Z,22.88
2018-05-25T15:38:47.338Z,23.05
2018-05-25T15:41:15.893Z,23.10
2018-05-25T15:43:44.466Z,23.17
2018-05-25T15:46:13.036Z,23.17
2018-05-25T15:48:41.594Z,23.06
2018-05-25T15:51:10.156Z,23.08
2018-05-25T15:53:40.805Z,23.05
2018-05-25T15:56:09.371Z,23.02
2018-05-25T15:58:37.926Z,23.04
2018-05-25T16:01:08.111Z,23.01
2018-05-25T16:03:36.818Z,22.99
2018-05-25T16:06:05.395Z,22.99
2018-05-25T16:08:33.960Z,23.08
2018-05-25T16:11:02.517Z,23.05
2018-05-25T16:13:30.759Z,23.02
2018-05-25T16:15:59.316Z,23.04
2018-05-25T16:18:27.879Z,23.05
2018-05-25T16:20:56.465Z,23.03
2018-05-25T16:23:25.027Z,23.11
2018-05-25T16:25:53.695Z,23.17
2018-05-25T16:28:22.262Z,23.17
2018-05-25T16:30:50.867Z,23.27
2018-05-25T16:33:19.596Z,23.25
2018-05-25T16:35:48.209Z,23.30
2018-05-25T16:38:16.775Z,23.27
2018-05-25T16:40:45.433Z,23.39
2018-05-25T16:43:14.042Z,23.45
2018-05-25T16:45:42.647Z,23.53
2018-05-25T16:48:11.199Z,23.57
2018-05-25T16:50:39.763Z,23.67
2018-05-25T16:53:08.317Z,23.76
2018-05-25T16:55:36.902Z,23.82
2018-05-25T16:58:05.493Z,23.83
2018-05-25T17:00:34.088Z,23.91
2018-05-25T17:03:02.639Z,23.98
2018-05-25T17:05:31.183Z,23.95
2018-05-25T17:07:59.772Z,23.95
2018-05-25T17:10:28.322Z,24.01
2018-05-25T17:12:56.988Z,23.95
2018-05-25T17:15:25.760Z,23.90
2018-05-25T17:17:54.360Z,23.94
2018-05-25T17:20:22.927Z,23.87
2018-05-25T17:22:51.499Z,23.89
2018-05-25T17:25:20.094Z,23.88
2018-05-25T17:27:48.826Z,23.72
2018-05-25T17:30:17.435Z,23.58
2018-05-25T17:32:45.987Z,23.39
2018-05-25T17:35:14.569Z,23.23
2018-05-25T17:37:43.118Z,23.15
2018-05-25T17:40:11.683Z,23.05
2018-05-25T17:42:40.243Z,22.91
2018-05-25T17:45:09.127Z,22.76
2018-05-25T17:47:37.996Z,22.59
2018-05-25T17:50:06.719Z,22.44
2018-05-25T17:52:35.539Z,22.21
2018-05-25T17:55:05.710Z,21.87
2018-05-25T17:57:34.276Z,21.21
2018-05-25T18:00:04.440Z,20.89
2018-05-25T18:02:33.012Z,20.69
2018-05-25T18:05:01.572Z,20.54
2018-05-25T18:07:30.945Z,20.30
2018-05-25T18:09:59.577Z,20.04
2018-05-25T18:12:28.159Z,19.95
2018-05-25T18:14:56.769Z,19.87
2018-05-25T18:17:25.359Z,19.55
2018-05-25T18:19:54.182Z,19.41
2018-05-25T18:22:22.986Z,19.20
2018-05-25T18:24:51.658Z,19.12
2018-05-25T18:27:21.258Z,19.02
2018-05-25T18:29:52.747Z,18.89
2018-05-25T18:32:21.745Z,18.84
2018-05-25T18:34:50.699Z,18.82
2018-05-25T18:37:19.268Z,18.85
2018-05-25T18:39:50.549Z,18.92
2018-05-25T18:42:19.139Z,18.90
2018-05-25T18:44:47.829Z,18.85
2018-05-25T18:47:16.447Z,18.71
2018-05-25T18:49:45.133Z,18.63
2018-05-25T18:52:13.684Z,18.64
2018-05-25T18:54:42.316Z,18.61
2018-05-25T18:57:10.928Z,18.58
2018-05-25T18:59:39.546Z,18.52
2018-05-25T19:02:08.146Z,18.55
2018-05-25T19:04:36.750Z,18.53
2018-05-25T19:07:05.487Z,18.43
2018-05-25T19:09:33.822Z,18.50
2018-05-25T19:12:02.410Z,18.50
2018-05-25T19:14:30.970Z,18.47
2018-05-25T19:16:59.535Z,18.45
2018-05-25T19:19:29.803Z,18.45
2018-05-25T19:21:58.398Z,18.43
2018-05-25T19:24:26.987Z,18.44
2018-05-25T19:26:55.641Z,18.46
2018-05-25T19:29:24.330Z,18.42
2018-05-25T19:31:52.902Z,18.46
2018-05-25T19:34:21.483Z,18.55
2018-05-25T19:36:50.073Z,18.58
2018-05-25T19:39:18.635Z,18.63
2018-05-25T19:41:47.241Z,18.68
2018-05-25T19:44:15.809Z,18.75
2018-05-25T19:46:45.003Z,18.80
2018-05-25T19:49:23.164Z,18.83
2018-05-25T19:51:51.883Z,18.82
2018-05-25T19:54:20.557Z,18.89
2018-05-25T19:56:49.152Z,18.90
2018-05-25T19:59:17.708Z,18.90
2018-05-25T20:01:46.576Z,18.77
2018-05-25T20:04:15.140Z,18.69
2018-05-25T20:06:43.708Z,18.53
2018-05-25T20:09:12.388Z,18.43
2018-05-25T20:11:40.949Z,18.46
2018-05-25T20:14:09.176Z,18.47
2018-05-25T20:16:37.768Z,18.30
2018-05-25T20:19:06.344Z,18.24
2018-05-25T20:21:34.907Z,18.15
2018-05-25T20:24:03.472Z,18.14
2018-05-25T20:26:32.032Z,18.18
2018-05-25T20:29:00.594Z,18.28
2018-05-25T20:31:29.191Z,18.22
2018-05-25T20:33:58.113Z,18.21
2018-05-25T20:36:27.901Z,18.27
2018-05-25T20:38:56.460Z,18.35
2018-05-25T20:41:25.019Z,18.43
2018-05-25T20:43:53.622Z,18.41
2018-05-25T20:46:22.181Z,18.40
2018-05-25T20:48:50.787Z,18.45
2018-05-25T20:51:19.353Z,18.52
2018-05-25T20:53:47.953Z,18.54
2018-05-25T20:56:16.548Z,18.53
2018-05-25T20:58:45.183Z,18.48
2018-05-25T21:01:13.748Z,18.45
2018-05-25T21:03:42.303Z,18.38
2018-05-25T21:06:11.025Z,18.25
2018-05-25T21:08:39.643Z,18.30
2018-05-25T21:11:08.248Z,18.28
2018-05-25T21:13:38.331Z,18.28
2018-05-25T21:16:06.897Z,18.28
2018-05-25T21:18:35.468Z,18.29
2018-05-25T21:21:04.016Z,18.25
2018-05-25T21:23:32.611Z,18.25
2018-05-25T21:26:02.016Z,18.23
2018-05-25T21:28:30.585Z,18.20
2018-05-25T21:30:59.157Z,18.27
2018-05-25T21:33:27.779Z,18.31
2018-05-25T21:35:56.352Z,18.32
2018-05-25T21:38:24.914Z,18.28
2018-05-25T21:40:53.540Z,18.26
2018-05-25T21:43:22.118Z,18.24
2018-05-25T21:45:50.673Z,18.28
2018-05-25T21:48:19.227Z,18.30
2018-05-25T21:50:47.788Z,18.32
2018-05-25T21:53:16.336Z,18.39
2018-05-25T21:55:45.196Z,18.38
2018-05-25T21:58:13.907Z,18.37
2018-05-25T22:00:42.471Z,18.30
2018-05-25T22:03:11.028Z,18.27
2018-05-25T22:05:39.613Z,18.21
2018-05-25T22:08:08.192Z,18.16
2018-05-25T22:10:36.772Z,18.17
2018-05-25T22:13:05.346Z,18.20
2018-05-25T22:15:33.909Z,18.19
2018-05-25T22:18:02.467Z,18.19
2018-05-25T22:20:31.079Z,18.18
2018-05-25T22:23:00.431Z,18.11
2018-05-25T22:25:28.736Z,18.06
2018-05-25T22:27:57.348Z,18.07
2018-05-25T22:30:26.016Z,18.00
2018-05-25T22:32:54.650Z,17.95
2018-05-25T22:35:23.296Z,17.95
2018-05-25T22:37:51.885Z,17.89
2018-05-25T22:40:20.433Z,17.87
2018-05-25T22:43:00.089Z,17.80
2018-05-25T22:45:39.796Z,17.75
2018-05-25T22:48:19.471Z,17.69
2018-05-25T22:50:59.109Z,17.63
2018-05-25T22:53:31.667Z,17.58
2018-05-25T22:56:00.307Z,17.53
2018-05-25T22:58:28.907Z,17.51
2018-05-25T23:00:57.469Z,17.49
2018-05-25T23:03:26.140Z,17.49
2018-05-25T23:05:54.690Z,17.47
2018-05-25T23:08:23.263Z,17.45
2018-05-25T23:10:51.829Z,17.41
2018-05-25T23:13:20.453Z,17.40
2018-05-25T23:15:49.016Z,17.34
2018-05-25T23:18:17.583Z,17.34
2018-05-25T23:20:46.143Z,17.31
2018-05-25T23:23:14.752Z,17.29
2018-05-25T23:25:42.989Z,17.25
2018-05-25T23:28:11.553Z,17.26
2018-05-25T23:30:40.116Z,17.29
2018-05-25T23:33:08.693Z,17.31
2018-05-25T23:35:37.264Z,17.29
2018-05-25T23:38:05.846Z,17.28
2018-05-25T23:40:34.412Z,17.29
2018-05-25T23:43:02.974Z,17.23
2018-05-25T23:45:31.550Z,17.23
2018-05-25T23:48:00.119Z,17.26
2018-05-25T23:50:28.733Z,17.26
2018-05-25T23:52:57.303Z,17.28
2018-05-25T23:55:25.868Z,17.26
2018-05-25T23:57:54.488Z,17.26
